sensor_id;sensor_type;location;lat;lon;timestamp;P1;durP1;ratioP1;P2;durP2;ratioP2
50309;SDS011;36207;51.850;21.698;2023-04-24T00:00:32;15.30;;;10.20;;
50309;SDS011;36207;51.850;21.698;2023-04-24T00:03:18;13.80;;;10.50;;
50309;SDS011;36207;51.850;21.698;2023-04-24T00:05:46;13.70;;;10.30;;
50309;SDS011;36207;51.850;21.698;2023-04-24T00:08:13;15.60;;;10.20;;
50309;SDS011;36207;51.850;21.698;2023-04-24T00:10:40;15.00;;;10.40;;
50309;SDS011;36207;51.850;21.698;2023-04-24T00:13:07;15.80;;;10.40;;
50309;SDS011;36207;51.850;21.698;2023-04-24T00:15:34;15.00;;;10.60;;
50309;SDS011;36207;51.850;21.698;2023-04-24T00:18:00;14.50;;;10.90;;
50309;SDS011;36207;51.850;21.698;2023-04-24T00:20:29;15.70;;;10.50;;
50309;SDS011;36207;51.850;21.698;2023-04-24T00:22:55;14.00;;;10.90;;
50309;SDS011;36207;51.850;21.698;2023-04-24T00:25:22;16.30;;;11.00;;
50309;SDS011;36207;51.850;21.698;2023-04-24T00:27:48;18.30;;;11.30;;
50309;SDS011;36207;51.850;21.698;2023-04-24T00:30:14;15.60;;;10.80;;
50309;SDS011;36207;51.850;21.698;2023-04-24T00:32:41;14.70;;;11.30;;
50309;SDS011;36207;51.850;21.698;2023-04-24T00:35:07;17.30;;;11.60;;
50309;SDS011;36207;51.850;21.698;2023-04-24T00:37:34;17.00;;;11.90;;
50309;SDS011;36207;51.850;21.698;2023-04-24T00:40:00;17.00;;;11.60;;
50309;SDS011;36207;51.850;21.698;2023-04-24T00:42:26;17.60;;;11.80;;
50309;SDS011;36207;51.850;21.698;2023-04-24T00:44:53;16.90;;;12.30;;
50309;SDS011;36207;51.850;21.698;2023-04-24T00:47:19;19.80;;;11.80;;
50309;SDS011;36207;51.850;21.698;2023-04-24T00:49:47;16.80;;;11.90;;
50309;SDS011;36207;51.850;21.698;2023-04-24T00:52:14;20.70;;;12.50;;
50309;SDS011;36207;51.850;21.698;2023-04-24T00:54:44;17.70;;;12.40;;
50309;SDS011;36207;51.850;21.698;2023-04-24T00:57:11;15.70;;;11.90;;
50309;SDS011;36207;51.850;21.698;2023-04-24T00:59:41;17.40;;;12.40;;
50309;SDS011;36207;51.850;21.698;2023-04-24T01:02:09;18.70;;;12.60;;
50309;SDS011;36207;51.850;21.698;2023-04-24T01:04:37;18.70;;;12.90;;
50309;SDS011;36207;51.850;21.698;2023-04-24T01:07:03;17.60;;;12.60;;
50309;SDS011;36207;51.850;21.698;2023-04-24T01:09:37;17.40;;;12.40;;
50309;SDS011;36207;51.850;21.698;2023-04-24T01:12:06;17.20;;;12.20;;
50309;SDS011;36207;51.850;21.698;2023-04-24T01:14:33;16.60;;;12.60;;
50309;SDS011;36207;51.850;21.698;2023-04-24T01:16:59;16.30;;;11.80;;
50309;SDS011;36207;51.850;21.698;2023-04-24T01:19:26;15.10;;;11.90;;
50309;SDS011;36207;51.850;21.698;2023-04-24T01:21:53;16.30;;;12.30;;
50309;SDS011;36207;51.850;21.698;2023-04-24T01:24:24;16.50;;;12.00;;
50309;SDS011;36207;51.850;21.698;2023-04-24T01:26:51;19.70;;;12.60;;
50309;SDS011;36207;51.850;21.698;2023-04-24T01:29:17;18.10;;;12.20;;
50309;SDS011;36207;51.850;21.698;2023-04-24T01:31:44;16.70;;;11.90;;
50309;SDS011;36207;51.850;21.698;2023-04-24T01:34:10;16.50;;;12.40;;
50309;SDS011;36207;51.850;21.698;2023-04-24T01:36:37;16.70;;;12.00;;
50309;SDS011;36207;51.850;21.698;2023-04-24T01:39:05;18.90;;;12.60;;
50309;SDS011;36207;51.850;21.698;2023-04-24T01:41:31;14.90;;;11.60;;
50309;SDS011;36207;51.850;21.698;2023-04-24T01:43:58;16.00;;;12.10;;
50309;SDS011;36207;51.850;21.698;2023-04-24T01:46:25;15.90;;;12.10;;
50309;SDS011;36207;51.850;21.698;2023-04-24T01:48:52;15.00;;;11.90;;
50309;SDS011;36207;51.850;21.698;2023-04-24T01:51:19;14.10;;;11.00;;
50309;SDS011;36207;51.850;21.698;2023-04-24T01:53:45;15.30;;;11.60;;
50309;SDS011;36207;51.850;21.698;2023-04-24T01:56:12;15.90;;;11.30;;
50309;SDS011;36207;51.850;21.698;2023-04-24T01:58:39;15.40;;;12.00;;
50309;SDS011;36207;51.850;21.698;2023-04-24T02:01:06;17.40;;;12.30;;
50309;SDS011;36207;51.850;21.698;2023-04-24T02:03:33;18.70;;;11.90;;
50309;SDS011;36207;51.850;21.698;2023-04-24T02:05:59;16.30;;;11.50;;
50309;SDS011;36207;51.850;21.698;2023-04-24T02:08:26;17.20;;;11.60;;
50309;SDS011;36207;51.850;21.698;2023-04-24T02:10:52;17.30;;;12.10;;
50309;SDS011;36207;51.850;21.698;2023-04-24T02:13:18;15.70;;;12.10;;
50309;SDS011;36207;51.850;21.698;2023-04-24T02:15:45;15.90;;;11.50;;
50309;SDS011;36207;51.850;21.698;2023-04-24T02:18:11;17.40;;;11.20;;
50309;SDS011;36207;51.850;21.698;2023-04-24T02:20:38;14.20;;;11.10;;
50309;SDS011;36207;51.850;21.698;2023-04-24T02:23:05;15.40;;;11.60;;
50309;SDS011;36207;51.850;21.698;2023-04-24T02:25:31;14.60;;;11.10;;
50309;SDS011;36207;51.850;21.698;2023-04-24T02:27:57;16.10;;;11.00;;
50309;SDS011;36207;51.850;21.698;2023-04-24T02:30:24;14.80;;;11.00;;
50309;SDS011;36207;51.850;21.698;2023-04-24T02:32:50;15.10;;;11.70;;
50309;SDS011;36207;51.850;21.698;2023-04-24T02:35:17;14.40;;;11.50;;
50309;SDS011;36207;51.850;21.698;2023-04-24T02:37:43;15.60;;;11.10;;
50309;SDS011;36207;51.850;21.698;2023-04-24T02:40:10;14.20;;;11.10;;
50309;SDS011;36207;51.850;21.698;2023-04-24T02:42:37;16.00;;;11.30;;
50309;SDS011;36207;51.850;21.698;2023-04-24T02:45:03;15.30;;;11.30;;
50309;SDS011;36207;51.850;21.698;2023-04-24T02:47:30;16.90;;;11.50;;
50309;SDS011;36207;51.850;21.698;2023-04-24T02:49:57;17.10;;;11.40;;
50309;SDS011;36207;51.850;21.698;2023-04-24T02:52:23;15.00;;;11.00;;
50309;SDS011;36207;51.850;21.698;2023-04-24T02:54:49;17.60;;;11.80;;
50309;SDS011;36207;51.850;21.698;2023-04-24T02:57:16;15.30;;;11.70;;
50309;SDS011;36207;51.850;21.698;2023-04-24T02:59:42;17.40;;;11.50;;
50309;SDS011;36207;51.850;21.698;2023-04-24T03:02:08;14.70;;;11.50;;
50309;SDS011;36207;51.850;21.698;2023-04-24T03:04:35;14.90;;;11.50;;
50309;SDS011;36207;51.850;21.698;2023-04-24T03:07:02;16.50;;;11.40;;
50309;SDS011;36207;51.850;21.698;2023-04-24T03:09:28;16.00;;;11.10;;
50309;SDS011;36207;51.850;21.698;2023-04-24T03:11:54;16.40;;;11.50;;
50309;SDS011;36207;51.850;21.698;2023-04-24T03:14:22;17.60;;;11.50;;
50309;SDS011;36207;51.850;21.698;2023-04-24T03:16:48;23.00;;;11.60;;
50309;SDS011;36207;51.850;21.698;2023-04-24T03:19:16;19.40;;;11.80;;
50309;SDS011;36207;51.850;21.698;2023-04-24T03:21:42;14.80;;;11.10;;
50309;SDS011;36207;51.850;21.698;2023-04-24T03:24:09;17.50;;;11.50;;
50309;SDS011;36207;51.850;21.698;2023-04-24T03:26:35;15.90;;;11.40;;
50309;SDS011;36207;51.850;21.698;2023-04-24T03:29:02;14.10;;;11.50;;
50309;SDS011;36207;51.850;21.698;2023-04-24T03:31:28;16.70;;;11.50;;
50309;SDS011;36207;51.850;21.698;2023-04-24T03:33:54;14.40;;;11.10;;
50309;SDS011;36207;51.850;21.698;2023-04-24T03:36:21;16.40;;;11.60;;
50309;SDS011;36207;51.850;21.698;2023-04-24T03:38:47;15.60;;;11.90;;
50309;SDS011;36207;51.850;21.698;2023-04-24T03:41:13;16.30;;;11.30;;
50309;SDS011;36207;51.850;21.698;2023-04-24T03:43:40;20.00;;;11.30;;
50309;SDS011;36207;51.850;21.698;2023-04-24T03:46:06;18.70;;;10.90;;
50309;SDS011;36207;51.850;21.698;2023-04-24T03:48:35;15.70;;;11.50;;
50309;SDS011;36207;51.850;21.698;2023-04-24T03:51:01;14.40;;;10.70;;
50309;SDS011;36207;51.850;21.698;2023-04-24T03:53:28;16.80;;;11.00;;
50309;SDS011;36207;51.850;21.698;2023-04-24T03:55:55;15.90;;;10.40;;
50309;SDS011;36207;51.850;21.698;2023-04-24T03:58:22;16.90;;;11.10;;
50309;SDS011;36207;51.850;21.698;2023-04-24T04:00:48;15.80;;;10.70;;
50309;SDS011;36207;51.850;21.698;2023-04-24T04:03:15;16.30;;;11.20;;
50309;SDS011;36207;51.850;21.698;2023-04-24T04:05:42;15.60;;;10.20;;
50309;SDS011;36207;51.850;21.698;2023-04-24T04:08:08;16.00;;;10.20;;
50309;SDS011;36207;51.850;21.698;2023-04-24T04:10:34;20.10;;;10.60;;
50309;SDS011;36207;51.850;21.698;2023-04-24T04:13:01;14.60;;;10.30;;
50309;SDS011;36207;51.850;21.698;2023-04-24T04:15:27;13.20;;;10.30;;
50309;SDS011;36207;51.850;21.698;2023-04-24T04:17:54;15.30;;;10.00;;
50309;SDS011;36207;51.850;21.698;2023-04-24T04:20:20;13.30;;;10.70;;
50309;SDS011;36207;51.850;21.698;2023-04-24T04:22:46;14.10;;;10.10;;
50309;SDS011;36207;51.850;21.698;2023-04-24T04:25:13;15.10;;;10.30;;
50309;SDS011;36207;51.850;21.698;2023-04-24T04:27:39;17.20;;;10.60;;
50309;SDS011;36207;51.850;21.698;2023-04-24T04:30:07;14.20;;;10.40;;
50309;SDS011;36207;51.850;21.698;2023-04-24T04:32:35;14.00;;;10.00;;
50309;SDS011;36207;51.850;21.698;2023-04-24T04:35:02;13.90;;;9.50;;
50309;SDS011;36207;51.850;21.698;2023-04-24T04:37:29;13.80;;;10.00;;
50309;SDS011;36207;51.850;21.698;2023-04-24T04:39:57;12.70;;;9.30;;
50309;SDS011;36207;51.850;21.698;2023-04-24T04:42:24;16.30;;;10.10;;
50309;SDS011;36207;51.850;21.698;2023-04-24T04:44:51;13.50;;;10.20;;
50309;SDS011;36207;51.850;21.698;2023-04-24T04:47:17;16.50;;;9.90;;
50309;SDS011;36207;51.850;21.698;2023-04-24T04:49:44;16.20;;;10.50;;
50309;SDS011;36207;51.850;21.698;2023-04-24T04:52:10;14.30;;;10.10;;
50309;SDS011;36207;51.850;21.698;2023-04-24T04:54:37;13.00;;;9.80;;
50309;SDS011;36207;51.850;21.698;2023-04-24T04:57:03;12.20;;;9.40;;
50309;SDS011;36207;51.850;21.698;2023-04-24T04:59:30;14.10;;;9.80;;
50309;SDS011;36207;51.850;21.698;2023-04-24T05:01:56;14.80;;;10.00;;
50309;SDS011;36207;51.850;21.698;2023-04-24T05:04:22;14.60;;;10.00;;
50309;SDS011;36207;51.850;21.698;2023-04-24T05:06:49;13.50;;;9.80;;
50309;SDS011;36207;51.850;21.698;2023-04-24T05:09:17;14.40;;;10.10;;
50309;SDS011;36207;51.850;21.698;2023-04-24T05:11:43;14.50;;;9.80;;
50309;SDS011;36207;51.850;21.698;2023-04-24T05:14:10;13.50;;;9.80;;
50309;SDS011;36207;51.850;21.698;2023-04-24T05:16:38;12.70;;;10.00;;
50309;SDS011;36207;51.850;21.698;2023-04-24T05:19:05;16.80;;;10.30;;
50309;SDS011;36207;51.850;21.698;2023-04-24T05:21:32;15.90;;;9.70;;
50309;SDS011;36207;51.850;21.698;2023-04-24T05:23:58;16.50;;;9.80;;
50309;SDS011;36207;51.850;21.698;2023-04-24T05:26:24;14.20;;;10.30;;
50309;SDS011;36207;51.850;21.698;2023-04-24T05:28:51;15.40;;;9.80;;
50309;SDS011;36207;51.850;21.698;2023-04-24T05:31:17;13.20;;;10.00;;
50309;SDS011;36207;51.850;21.698;2023-04-24T05:33:43;18.30;;;10.40;;
50309;SDS011;36207;51.850;21.698;2023-04-24T05:36:10;15.40;;;10.00;;
50309;SDS011;36207;51.850;21.698;2023-04-24T05:38:36;14.50;;;9.80;;
50309;SDS011;36207;51.850;21.698;2023-04-24T05:41:02;25.00;;;12.90;;
50309;SDS011;36207;51.850;21.698;2023-04-24T05:43:29;35.10;;;17.90;;
50309;SDS011;36207;51.850;21.698;2023-04-24T05:45:55;17.20;;;11.30;;
50309;SDS011;36207;51.850;21.698;2023-04-24T05:48:21;30.60;;;15.70;;
50309;SDS011;36207;51.850;21.698;2023-04-24T05:50:48;27.50;;;15.90;;
50309;SDS011;36207;51.850;21.698;2023-04-24T05:53:15;13.30;;;10.30;;
50309;SDS011;36207;51.850;21.698;2023-04-24T05:55:41;17.20;;;10.90;;
50309;SDS011;36207;51.850;21.698;2023-04-24T05:58:07;23.50;;;13.80;;
50309;SDS011;36207;51.850;21.698;2023-04-24T06:00:34;18.10;;;11.50;;
50309;SDS011;36207;51.850;21.698;2023-04-24T06:03:01;18.90;;;11.90;;
50309;SDS011;36207;51.850;21.698;2023-04-24T06:05:29;15.40;;;11.20;;
50309;SDS011;36207;51.850;21.698;2023-04-24T06:07:56;18.40;;;11.90;;
50309;SDS011;36207;51.850;21.698;2023-04-24T06:10:22;11.70;;;9.60;;
50309;SDS011;36207;51.850;21.698;2023-04-24T06:12:49;15.00;;;10.10;;
50309;SDS011;36207;51.850;21.698;2023-04-24T06:15:15;15.50;;;10.20;;
50309;SDS011;36207;51.850;21.698;2023-04-24T06:17:41;15.50;;;9.90;;
50309;SDS011;36207;51.850;21.698;2023-04-24T06:20:08;23.70;;;12.50;;
50309;SDS011;36207;51.850;21.698;2023-04-24T06:22:36;23.90;;;13.20;;
50309;SDS011;36207;51.850;21.698;2023-04-24T06:25:03;13.20;;;10.30;;
50309;SDS011;36207;51.850;21.698;2023-04-24T06:27:30;14.50;;;10.50;;
50309;SDS011;36207;51.850;21.698;2023-04-24T06:29:56;15.30;;;9.90;;
50309;SDS011;36207;51.850;21.698;2023-04-24T06:32:23;13.60;;;10.20;;
50309;SDS011;36207;51.850;21.698;2023-04-24T06:34:53;17.20;;;11.30;;
50309;SDS011;36207;51.850;21.698;2023-04-24T06:37:19;18.80;;;12.90;;
50309;SDS011;36207;51.850;21.698;2023-04-24T06:39:46;14.40;;;11.10;;
50309;SDS011;36207;51.850;21.698;2023-04-24T06:42:12;17.10;;;10.20;;
50309;SDS011;36207;51.850;21.698;2023-04-24T06:44:39;16.70;;;10.20;;
50309;SDS011;36207;51.850;21.698;2023-04-24T06:47:10;13.80;;;9.80;;
50309;SDS011;36207;51.850;21.698;2023-04-24T06:49:39;13.50;;;10.40;;
50309;SDS011;36207;51.850;21.698;2023-04-24T06:52:06;16.30;;;10.40;;
50309;SDS011;36207;51.850;21.698;2023-04-24T06:54:32;15.20;;;10.10;;
50309;SDS011;36207;51.850;21.698;2023-04-24T06:56:59;13.90;;;10.40;;
50309;SDS011;36207;51.850;21.698;2023-04-24T06:59:26;13.40;;;10.20;;
50309;SDS011;36207;51.850;21.698;2023-04-24T07:01:54;13.40;;;10.10;;
50309;SDS011;36207;51.850;21.698;2023-04-24T07:04:21;13.40;;;9.90;;
50309;SDS011;36207;51.850;21.698;2023-04-24T07:06:47;16.10;;;9.90;;
50309;SDS011;36207;51.850;21.698;2023-04-24T07:09:18;15.00;;;10.20;;
50309;SDS011;36207;51.850;21.698;2023-04-24T07:11:45;15.10;;;10.10;;
50309;SDS011;36207;51.850;21.698;2023-04-24T07:14:11;13.80;;;10.50;;
50309;SDS011;36207;51.850;21.698;2023-04-24T07:16:38;14.60;;;10.20;;
50309;SDS011;36207;51.850;21.698;2023-04-24T07:19:05;15.00;;;11.00;;
50309;SDS011;36207;51.850;21.698;2023-04-24T07:21:32;20.40;;;12.00;;
50309;SDS011;36207;51.850;21.698;2023-04-24T07:23:58;17.40;;;11.20;;
50309;SDS011;36207;51.850;21.698;2023-04-24T07:26:25;16.70;;;11.00;;
50309;SDS011;36207;51.850;21.698;2023-04-24T07:28:53;20.20;;;10.90;;
50309;SDS011;36207;51.850;21.698;2023-04-24T07:31:19;14.40;;;10.70;;
50309;SDS011;36207;51.850;21.698;2023-04-24T07:33:46;16.00;;;10.70;;
50309;SDS011;36207;51.850;21.698;2023-04-24T07:36:13;14.20;;;10.20;;
50309;SDS011;36207;51.850;21.698;2023-04-24T07:38:45;16.60;;;10.80;;
50309;SDS011;36207;51.850;21.698;2023-04-24T07:41:15;16.10;;;10.50;;
50309;SDS011;36207;51.850;21.698;2023-04-24T07:43:41;15.70;;;10.70;;
50309;SDS011;36207;51.850;21.698;2023-04-24T07:46:08;17.20;;;10.20;;
50309;SDS011;36207;51.850;21.698;2023-04-24T07:48:35;13.20;;;10.00;;
50309;SDS011;36207;51.850;21.698;2023-04-24T07:51:02;16.20;;;10.50;;
50309;SDS011;36207;51.850;21.698;2023-04-24T07:53:29;14.30;;;10.30;;
50309;SDS011;36207;51.850;21.698;2023-04-24T07:55:56;15.10;;;10.70;;
50309;SDS011;36207;51.850;21.698;2023-04-24T07:58:22;14.20;;;10.20;;
50309;SDS011;36207;51.850;21.698;2023-04-24T08:00:49;14.60;;;10.60;;
50309;SDS011;36207;51.850;21.698;2023-04-24T08:03:15;20.20;;;11.10;;
50309;SDS011;36207;51.850;21.698;2023-04-24T08:05:44;15.40;;;10.70;;
50309;SDS011;36207;51.850;21.698;2023-04-24T08:08:11;15.60;;;9.90;;
50309;SDS011;36207;51.850;21.698;2023-04-24T08:10:37;16.30;;;11.00;;
50309;SDS011;36207;51.850;21.698;2023-04-24T08:13:03;14.40;;;11.00;;
50309;SDS011;36207;51.850;21.698;2023-04-24T08:15:29;17.60;;;10.50;;
50309;SDS011;36207;51.850;21.698;2023-04-24T08:17:56;11.90;;;9.60;;
50309;SDS011;36207;51.850;21.698;2023-04-24T08:20:23;14.50;;;10.40;;
50309;SDS011;36207;51.850;21.698;2023-04-24T08:22:49;14.90;;;10.50;;
50309;SDS011;36207;51.850;21.698;2023-04-24T08:25:15;21.10;;;10.50;;
50309;SDS011;36207;51.850;21.698;2023-04-24T08:27:43;16.90;;;11.00;;
50309;SDS011;36207;51.850;21.698;2023-04-24T08:30:10;14.90;;;10.30;;
50309;SDS011;36207;51.850;21.698;2023-04-24T08:32:37;14.20;;;10.30;;
50309;SDS011;36207;51.850;21.698;2023-04-24T08:35:03;18.00;;;10.60;;
50309;SDS011;36207;51.850;21.698;2023-04-24T08:37:30;15.30;;;10.90;;
50309;SDS011;36207;51.850;21.698;2023-04-24T08:39:56;16.70;;;10.40;;
50309;SDS011;36207;51.850;21.698;2023-04-24T08:42:23;16.00;;;10.90;;
50309;SDS011;36207;51.850;21.698;2023-04-24T08:44:50;13.30;;;10.40;;
50309;SDS011;36207;51.850;21.698;2023-04-24T08:47:16;14.20;;;10.30;;
50309;SDS011;36207;51.850;21.698;2023-04-24T08:49:43;15.70;;;10.00;;
50309;SDS011;36207;51.850;21.698;2023-04-24T08:52:12;13.60;;;10.10;;
50309;SDS011;36207;51.850;21.698;2023-04-24T08:54:38;15.70;;;10.20;;
50309;SDS011;36207;51.850;21.698;2023-04-24T08:57:06;15.50;;;10.00;;
50309;SDS011;36207;51.850;21.698;2023-04-24T08:59:36;18.20;;;9.80;;
50309;SDS011;36207;51.850;21.698;2023-04-24T09:02:04;17.80;;;10.20;;
50309;SDS011;36207;51.850;21.698;2023-04-24T09:04:31;14.70;;;9.70;;
50309;SDS011;36207;51.850;21.698;2023-04-24T09:06:59;14.20;;;9.70;;
50309;SDS011;36207;51.850;21.698;2023-04-24T09:09:26;13.70;;;9.50;;
50309;SDS011;36207;51.850;21.698;2023-04-24T09:11:55;16.40;;;9.50;;
50309;SDS011;36207;51.850;21.698;2023-04-24T09:14:23;14.60;;;9.60;;
50309;SDS011;36207;51.850;21.698;2023-04-24T09:16:50;11.30;;;9.20;;
50309;SDS011;36207;51.850;21.698;2023-04-24T09:19:17;18.10;;;9.30;;
50309;SDS011;36207;51.850;21.698;2023-04-24T09:21:45;12.10;;;9.60;;
50309;SDS011;36207;51.850;21.698;2023-04-24T09:24:19;15.80;;;9.70;;
50309;SDS011;36207;51.850;21.698;2023-04-24T09:26:48;13.50;;;9.10;;
50309;SDS011;36207;51.850;21.698;2023-04-24T09:29:23;12.60;;;9.30;;
50309;SDS011;36207;51.850;21.698;2023-04-24T09:31:50;11.90;;;8.60;;
50309;SDS011;36207;51.850;21.698;2023-04-24T09:34:23;12.00;;;8.40;;
50309;SDS011;36207;51.850;21.698;2023-04-24T09:36:51;15.50;;;8.80;;
50309;SDS011;36207;51.850;21.698;2023-04-24T09:39:18;11.90;;;8.20;;
50309;SDS011;36207;51.850;21.698;2023-04-24T09:41:54;18.60;;;7.70;;
50309;SDS011;36207;51.850;21.698;2023-04-24T09:44:27;13.10;;;7.80;;
50309;SDS011;36207;51.850;21.698;2023-04-24T09:46:55;11.90;;;8.00;;
50309;SDS011;36207;51.850;21.698;2023-04-24T09:49:27;16.90;;;8.00;;
50309;SDS011;36207;51.850;21.698;2023-04-24T09:52:05;10.50;;;8.70;;
50309;SDS011;36207;51.850;21.698;2023-04-24T09:54:36;9.90;;;7.20;;
50309;SDS011;36207;51.850;21.698;2023-04-24T09:57:03;11.80;;;6.60;;
50309;SDS011;36207;51.850;21.698;2023-04-24T09:59:30;12.10;;;7.10;;
50309;SDS011;36207;51.850;21.698;2023-04-24T10:01:56;18.00;;;7.30;;
50309;SDS011;36207;51.850;21.698;2023-04-24T10:04:25;14.40;;;7.00;;
50309;SDS011;36207;51.850;21.698;2023-04-24T10:06:54;11.90;;;6.70;;
50309;SDS011;36207;51.850;21.698;2023-04-24T10:09:23;10.60;;;6.90;;
50309;SDS011;36207;51.850;21.698;2023-04-24T10:11:51;12.40;;;7.00;;
50309;SDS011;36207;51.850;21.698;2023-04-24T10:14:19;13.80;;;7.10;;
50309;SDS011;36207;51.850;21.698;2023-04-24T10:16:48;9.60;;;6.20;;
50309;SDS011;36207;51.850;21.698;2023-04-24T10:19:16;12.50;;;6.70;;
50309;SDS011;36207;51.850;21.698;2023-04-24T10:21:46;10.60;;;6.60;;
50309;SDS011;36207;51.850;21.698;2023-04-24T10:24:16;10.90;;;6.50;;
50309;SDS011;36207;51.850;21.698;2023-04-24T10:26:46;9.90;;;6.70;;
50309;SDS011;36207;51.850;21.698;2023-04-24T10:29:15;12.30;;;6.60;;
50309;SDS011;36207;51.850;21.698;2023-04-24T10:31:43;11.50;;;6.80;;
50309;SDS011;36207;51.850;21.698;2023-04-24T10:34:11;13.10;;;6.60;;
50309;SDS011;36207;51.850;21.698;2023-04-24T10:36:41;10.10;;;6.90;;
50309;SDS011;36207;51.850;21.698;2023-04-24T10:39:12;10.40;;;7.10;;
50309;SDS011;36207;51.850;21.698;2023-04-24T10:41:43;13.10;;;6.40;;
50309;SDS011;36207;51.850;21.698;2023-04-24T10:44:12;9.50;;;6.60;;
50309;SDS011;36207;51.850;21.698;2023-04-24T10:46:46;9.60;;;6.30;;
50309;SDS011;36207;51.850;21.698;2023-04-24T10:49:27;10.00;;;6.90;;
50309;SDS011;36207;51.850;21.698;2023-04-24T10:51:54;9.10;;;6.40;;
50309;SDS011;36207;51.850;21.698;2023-04-24T10:56:52;10.00;;;6.40;;
50309;SDS011;36207;51.850;21.698;2023-04-24T10:59:39;11.40;;;6.60;;
50309;SDS011;36207;51.850;21.698;2023-04-24T11:02:07;13.60;;;6.30;;
50309;SDS011;36207;51.850;21.698;2023-04-24T11:04:34;9.50;;;6.20;;
50309;SDS011;36207;51.850;21.698;2023-04-24T11:07:03;10.80;;;6.30;;
50309;SDS011;36207;51.850;21.698;2023-04-24T11:09:30;10.90;;;6.50;;
50309;SDS011;36207;51.850;21.698;2023-04-24T11:12:07;13.10;;;6.20;;
50309;SDS011;36207;51.850;21.698;2023-04-24T11:17:33;9.90;;;6.10;;
50309;SDS011;36207;51.850;21.698;2023-04-24T11:20:04;12.80;;;6.20;;
50309;SDS011;36207;51.850;21.698;2023-04-24T11:22:39;12.80;;;6.00;;
50309;SDS011;36207;51.850;21.698;2023-04-24T11:25:08;13.30;;;6.20;;
50309;SDS011;36207;51.850;21.698;2023-04-24T11:27:41;11.80;;;6.00;;
50309;SDS011;36207;51.850;21.698;2023-04-24T11:30:10;16.40;;;6.30;;
50309;SDS011;36207;51.850;21.698;2023-04-24T11:32:37;11.30;;;5.80;;
50309;SDS011;36207;51.850;21.698;2023-04-24T11:37:48;12.10;;;6.20;;
50309;SDS011;36207;51.850;21.698;2023-04-24T11:40:17;10.00;;;6.60;;
50309;SDS011;36207;51.850;21.698;2023-04-24T11:42:51;13.00;;;6.60;;
50309;SDS011;36207;51.850;21.698;2023-04-24T11:45:21;9.10;;;6.10;;
50309;SDS011;36207;51.850;21.698;2023-04-24T11:47:49;12.20;;;6.20;;
50309;SDS011;36207;51.850;21.698;2023-04-24T11:50:17;10.50;;;6.20;;
50309;SDS011;36207;51.850;21.698;2023-04-24T11:52:45;12.20;;;6.30;;
50309;SDS011;36207;51.850;21.698;2023-04-24T11:57:42;9.10;;;6.10;;
50309;SDS011;36207;51.850;21.698;2023-04-24T12:00:19;11.20;;;5.90;;
50309;SDS011;36207;51.850;21.698;2023-04-24T12:02:47;10.80;;;6.00;;
50309;SDS011;36207;51.850;21.698;2023-04-24T12:05:25;12.00;;;6.10;;
50309;SDS011;36207;51.850;21.698;2023-04-24T12:07:53;8.00;;;5.50;;
50309;SDS011;36207;51.850;21.698;2023-04-24T12:10:20;9.60;;;6.20;;
50309;SDS011;36207;51.850;21.698;2023-04-24T12:12:51;15.80;;;6.00;;
50309;SDS011;36207;51.850;21.698;2023-04-24T12:15:18;9.10;;;5.80;;
50309;SDS011;36207;51.850;21.698;2023-04-24T12:17:46;10.80;;;5.80;;
50309;SDS011;36207;51.850;21.698;2023-04-24T12:20:14;9.10;;;5.60;;
50309;SDS011;36207;51.850;21.698;2023-04-24T12:22:47;8.80;;;5.60;;
50309;SDS011;36207;51.850;21.698;2023-04-24T12:25:16;8.70;;;5.40;;
50309;SDS011;36207;51.850;21.698;2023-04-24T12:27:46;6.70;;;5.30;;
50309;SDS011;36207;51.850;21.698;2023-04-24T12:30:18;9.80;;;6.00;;
50309;SDS011;36207;51.850;21.698;2023-04-24T12:32:48;11.00;;;5.60;;
50309;SDS011;36207;51.850;21.698;2023-04-24T12:35:19;9.80;;;5.50;;
50309;SDS011;36207;51.850;21.698;2023-04-24T12:37:46;8.00;;;5.50;;
50309;SDS011;36207;51.850;21.698;2023-04-24T12:40:13;14.20;;;5.90;;
50309;SDS011;36207;51.850;21.698;2023-04-24T12:42:45;8.60;;;5.50;;
50309;SDS011;36207;51.850;21.698;2023-04-24T12:45:13;8.10;;;5.30;;
50309;SDS011;36207;51.850;21.698;2023-04-24T12:47:41;10.40;;;5.40;;
50309;SDS011;36207;51.850;21.698;2023-04-24T12:50:13;6.80;;;5.40;;
50309;SDS011;36207;51.850;21.698;2023-04-24T12:52:41;9.50;;;5.50;;
50309;SDS011;36207;51.850;21.698;2023-04-24T12:55:08;7.70;;;5.60;;
50309;SDS011;36207;51.850;21.698;2023-04-24T12:57:36;11.60;;;5.50;;
50309;SDS011;36207;51.850;21.698;2023-04-24T13:00:04;8.20;;;5.40;;
50309;SDS011;36207;51.850;21.698;2023-04-24T13:02:32;8.30;;;5.50;;
50309;SDS011;36207;51.850;21.698;2023-04-24T13:04:59;7.10;;;5.30;;
50309;SDS011;36207;51.850;21.698;2023-04-24T13:07:27;7.00;;;5.20;;
50309;SDS011;36207;51.850;21.698;2023-04-24T13:09:54;8.80;;;5.30;;
50309;SDS011;36207;51.850;21.698;2023-04-24T13:12:21;7.90;;;5.30;;
50309;SDS011;36207;51.850;21.698;2023-04-24T13:14:49;9.40;;;5.20;;
50309;SDS011;36207;51.850;21.698;2023-04-24T13:17:16;12.40;;;5.60;;
50309;SDS011;36207;51.850;21.698;2023-04-24T13:19:43;7.50;;;5.00;;
50309;SDS011;36207;51.850;21.698;2023-04-24T13:22:11;12.20;;;5.10;;
50309;SDS011;36207;51.850;21.698;2023-04-24T13:24:39;6.60;;;4.90;;
50309;SDS011;36207;51.850;21.698;2023-04-24T13:27:07;20.90;;;5.50;;
50309;SDS011;36207;51.850;21.698;2023-04-24T13:29:35;10.40;;;5.40;;
50309;SDS011;36207;51.850;21.698;2023-04-24T13:32:02;10.90;;;4.90;;
50309;SDS011;36207;51.850;21.698;2023-04-24T13:34:28;7.90;;;5.00;;
50309;SDS011;36207;51.850;21.698;2023-04-24T13:36:56;8.00;;;5.20;;
50309;SDS011;36207;51.850;21.698;2023-04-24T13:39:23;8.90;;;4.70;;
50309;SDS011;36207;51.850;21.698;2023-04-24T13:41:52;11.80;;;4.70;;
50309;SDS011;36207;51.850;21.698;2023-04-24T13:44:19;7.00;;;5.00;;
50309;SDS011;36207;51.850;21.698;2023-04-24T13:46:47;8.80;;;5.00;;
50309;SDS011;36207;51.850;21.698;2023-04-24T13:49:15;7.20;;;5.00;;
50309;SDS011;36207;51.850;21.698;2023-04-24T13:51:42;10.00;;;5.10;;
50309;SDS011;36207;51.850;21.698;2023-04-24T13:54:09;9.70;;;5.50;;
50309;SDS011;36207;51.850;21.698;2023-04-24T13:56:36;9.40;;;5.40;;
50309;SDS011;36207;51.850;21.698;2023-04-24T13:59:02;9.50;;;5.20;;
50309;SDS011;36207;51.850;21.698;2023-04-24T14:01:28;7.20;;;5.20;;
50309;SDS011;36207;51.850;21.698;2023-04-24T14:03:55;6.70;;;4.90;;
50309;SDS011;36207;51.850;21.698;2023-04-24T14:06:22;7.40;;;5.10;;
50309;SDS011;36207;51.850;21.698;2023-04-24T14:08:49;8.20;;;4.60;;
50309;SDS011;36207;51.850;21.698;2023-04-24T14:11:17;8.70;;;4.70;;
50309;SDS011;36207;51.850;21.698;2023-04-24T14:13:44;11.80;;;4.80;;
50309;SDS011;36207;51.850;21.698;2023-04-24T14:16:11;9.30;;;5.10;;
50309;SDS011;36207;51.850;21.698;2023-04-24T14:18:40;9.30;;;5.10;;
50309;SDS011;36207;51.850;21.698;2023-04-24T14:21:06;10.80;;;4.60;;
50309;SDS011;36207;51.850;21.698;2023-04-24T14:23:33;8.20;;;5.20;;
50309;SDS011;36207;51.850;21.698;2023-04-24T14:26:00;8.90;;;5.20;;
50309;SDS011;36207;51.850;21.698;2023-04-24T14:28:26;7.20;;;4.70;;